Time;durP1;ratioP1;P1;durP2;ratioP2;P2;SDS_P1;SDS_P2;PMS_P1;PMS_P2;Temp;Humidity;BMP_temperature;BMP_pressure;BME280_temperature;BME280_humidity;BME280_pressure;Samples;Min_cycle;Max_cycle;Signal;HPM_P1;HPM_P2
2024/01/26 00:01:44;;;;;;;9.33;3.67;;;7.20;84.90;;;7.13;52.71;95315.09;5069673;28;20500;-61
2024/01/26 00:04:11;;;;;;;7.30;3.17;;;7.20;84.80;;;7.15;52.70;95304.53;5069532;28;20451;-59
2024/01/26 00:06:40;;;;;;;7.03;3.50;;;7.20;84.30;;;7.16;52.28;95314.91;5069594;28;20499;-59
2024/01/26 00:09:10;;;;;;;6.57;3.37;;;7.20;84.70;;;7.16;52.18;95314.91;5069641;28;20447;-58
2024/01/26 00:11:38;;;;;;;7.30;3.40;;;7.20;84.40;;;7.16;52.30;95327.97;5069343;28;20474;-60
2024/01/26 00:14:05;;;;;;;14.43;3.60;;;7.20;84.00;;;7.16;52.06;95322.75;5069400;28;20451;-61
2024/01/26 00:16:32;;;;;;;8.20;2.60;;;7.20;83.90;;;7.15;52.85;95330.69;5069612;28;20475;-59
2024/01/26 00:19:00;;;;;;;8.27;3.20;;;7.20;83.90;;;7.14;52.47;95329.88;5069114;28;20470;-59
2024/01/26 00:21:27;;;;;;;6.33;3.10;;;7.20;84.00;;;7.15;52.25;95338.53;5069388;28;20493;-58
2024/01/26 00:23:56;;;;;;;8.83;3.17;;;7.20;84.00;;;7.14;52.66;95348.19;5069564;28;20554;-61
2024/01/26 00:26:23;;;;;;;10.17;3.13;;;7.20;84.00;;;7.16;52.82;95348.06;5069195;28;20478;-61
2024/01/26 00:28:51;;;;;;;8.03;3.13;;;7.20;84.30;;;7.18;52.24;95349.63;5069186;28;20503;-60
2024/01/26 00:31:18;;;;;;;8.63;3.77;;;7.20;84.30;;;7.20;52.71;95356.53;5069318;28;20482;-58
2024/01/26 00:33:46;;;;;;;18.27;3.60;;;7.20;84.30;;;7.22;52.81;95363.34;5069244;28;20491;-61
2024/01/26 00:36:13;;;;;;;6.77;3.00;;;7.30;84.30;;;7.24;52.26;95355.38;5069096;28;20475;-62
2024/01/26 00:38:41;;;;;;;6.37;3.00;;;7.30;84.10;;;7.24;52.84;95365.84;5070364;28;20442;-58
2024/01/26 00:41:10;;;;;;;11.13;3.67;;;7.30;84.20;;;7.24;52.34;95363.22;5069431;28;20481;-59
2024/01/26 00:43:37;;;;;;;7.83;3.10;;;7.30;84.00;;;7.25;52.42;95360.50;5069405;28;20463;-58
2024/01/26 00:46:04;;;;;;;9.90;2.93;;;7.30;83.90;;;7.25;51.98;95352.66;5069334;28;20475;-61
2024/01/26 00:48:32;;;;;;;7.33;3.30;;;7.30;83.80;;;7.28;52.06;95359.44;5069282;28;20459;-58
2024/01/26 00:51:00;;;;;;;10.70;4.00;;;7.30;83.90;;;7.27;52.37;95361.22;5069255;28;20534;-58
2024/01/26 00:53:27;;;;;;;11.07;3.00;;;7.40;83.60;;;7.26;52.34;95349.09;5068842;28;20566;-60
2024/01/26 00:55:55;;;;;;;7.73;3.00;;;7.30;83.40;;;7.25;52.05;95354.41;5069350;28;20474;-61
2024/01/26 00:58:23;;;;;;;4.60;2.73;;;7.30;82.60;;;7.24;51.62;95352.78;5068789;28;20500;-59
2024/01/26 01:00:50;;;;;;;8.23;2.63;;;7.30;82.70;;;7.22;51.27;95367.72;5068782;28;20486;-58
2024/01/26 01:03:18;;;;;;;16.30;4.10;;;7.30;82.40;;;7.18;51.47;95360.09;5068823;28;20447;-60
2024/01/26 01:05:46;;;;;;;5.30;3.00;;;7.30;82.40;;;7.15;51.32;95355.06;5068904;28;20467;-61
2024/01/26 01:08:14;;;;;;;5.43;3.00;;;7.20;82.30;;;7.13;52.11;95364.81;5068812;28;20605;-60
2024/01/26 01:10:41;;;;;;;5.60;2.30;;;7.20;82.20;;;7.10;51.66;95351.94;5068545;28;20462;-58
2024/01/26 01:13:10;;;;;;;8.03;2.83;;;7.10;81.70;;;7.04;51.83;95359.38;5068902;28;20486;-57
2024/01/26 01:15:40;;;;;;;4.60;2.10;;;7.10;81.60;;;6.98;51.77;95352.78;5068679;28;20455;-60
2024/01/26 01:18:07;;;;;;;6.07;2.23;;;7.10;81.60;;;6.94;51.76;95361.78;5069104;28;20455;-60
2024/01/26 01:20:34;;;;;;;5.17;2.30;;;7.00;81.70;;;6.92;51.04;95361.06;5068861;28;20674;-60
2024/01/26 01:23:02;;;;;;;11.23;2.57;;;7.00;81.50;;;6.88;52.04;95355.22;5068787;28;20455;-59
2024/01/26 01:25:29;;;;;;;4.97;2.20;;;7.00;81.60;;;6.87;51.79;95368.38;5071142;28;20520;-58
2024/01/26 01:27:57;;;;;;;8.50;3.20;;;6.90;81.60;;;6.84;51.32;95363.38;5072246;28;20454;-60
2024/01/26 01:30:24;;;;;;;10.53;2.60;;;6.90;81.50;;;6.82;51.87;95364.31;5072206;28;20474;-60
2024/01/26 01:32:53;;;;;;;9.27;3.77;;;6.90;81.70;;;6.80;51.54;95368.81;5072816;28;20487;-59
2024/01/26 01:35:20;;;;;;;5.07;2.10;;;6.90;81.60;;;6.79;51.21;95372.34;5072588;28;20839;-61
2024/01/26 01:37:47;;;;;;;5.20;2.70;;;6.90;81.80;;;6.77;51.96;95369.00;5072559;28;20846;-59
2024/01/26 01:40:15;;;;;;;6.70;2.10;;;6.90;81.80;;;6.75;51.76;95365.66;5072006;28;20515;-58
2024/01/26 01:42:43;;;;;;;7.23;2.37;;;6.80;81.80;;;6.71;51.34;95364.19;5071982;28;20451;-61
2024/01/26 01:45:14;;;;;;;6.10;2.00;;;6.80;81.70;;;6.66;52.10;95363.66;5072175;28;20462;-59
2024/01/26 01:47:41;;;;;;;11.47;2.93;;;6.80;81.90;;;6.62;51.38;95368.25;5071897;28;20482;-61
2024/01/26 01:50:10;;;;;;;8.57;2.60;;;6.80;81.90;;;6.58;51.44;95372.03;5071639;28;20450;-57
2024/01/26 01:52:41;;;;;;;6.77;1.90;;;6.70;81.90;;;6.55;52.20;95368.78;5071511;28;21052;-61
2024/01/26 01:55:11;;;;;;;14.30;2.27;;;6.70;82.20;;;6.53;52.18;95368.88;5071775;28;20534;-58
2024/01/26 01:57:40;;;;;;;9.17;3.00;;;6.60;82.50;;;6.51;52.10;95369.94;5071757;28;20508;-58
2024/01/26 02:00:15;;;;;;;6.63;3.10;;;6.60;82.50;;;6.48;51.97;95370.16;5067510;28;20525;-58
2024/01/26 02:02:45;;;;;;;6.43;2.93;;;6.60;82.80;;;6.46;51.88;95376.31;5068698;28;20510;-58
2024/01/26 02:05:13;;;;;;;11.37;3.33;;;6.60;82.90;;;6.46;52.25;95371.06;5071549;28;20487;-59
2024/01/26 02:07:41;;;;;;;8.50;2.13;;;6.50;82.70;;;6.46;52.42;95372.88;5073815;28;20447;-61
2024/01/26 02:10:09;;;;;;;10.70;2.50;;;6.60;82.90;;;6.46;51.99;95380.69;5072936;28;20827;-60
2024/01/26 02:12:37;;;;;;;13.50;2.80;;;6.50;82.70;;;6.44;52.31;95379.94;5071595;28;20490;-60
2024/01/26 02:15:08;;;;;;;13.57;2.80;;;6.50;83.00;;;6.43;52.47;95378.28;5071048;28;20626;-60
2024/01/26 02:17:35;;;;;;;5.93;2.57;;;6.50;83.10;;;6.46;52.87;95386.75;5071310;28;20450;-60
2024/01/26 02:20:04;;;;;;;6.27;2.40;;;6.50;83.30;;;6.48;52.37;95391.06;5071108;28;20928;-58
2024/01/26 02:22:32;;;;;;;13.03;2.90;;;6.50;83.20;;;6.48;52.05;95385.81;5071241;28;20454;-59
2024/01/26 02:25:01;;;;;;;10.63;2.57;;;6.60;83.40;;;6.46;52.22;95383.31;5070988;28;20450;-60
2024/01/26 02:27:28;;;;;;;4.43;2.30;;;6.50;83.10;;;6.46;52.58;95378.09;5071271;28;20881;-58
2024/01/26 02:29:56;;;;;;;8.67;2.87;;;6.50;83.20;;;6.47;52.54;95371.91;5070899;28;20454;-59
2024/01/26 02:32:23;;;;;;;6.73;2.70;;;6.50;83.20;;;6.45;52.13;95366.78;5070845;28;20825;-58
2024/01/26 02:34:50;;;;;;;10.93;3.33;;;6.50;83.20;;;6.50;52.10;95376.09;5070951;28;20450;-59
2024/01/26 02:37:17;;;;;;;12.03;2.70;;;6.50;83.20;;;6.50;52.82;95365.66;5070949;28;20533;-60
2024/01/26 02:39:45;;;;;;;9.43;2.53;;;6.60;83.40;;;6.53;52.47;95370.66;5071275;28;20455;-59
2024/01/26 02:42:13;;;;;;;8.00;3.80;;;6.60;83.40;;;6.54;52.82;95364.50;5070880;28;20463;-58
2024/01/26 02:44:41;;;;;;;7.23;2.30;;;6.60;84.00;;;6.54;52.68;95367.94;5070710;28;20458;-60
2024/01/26 02:47:08;;;;;;;6.97;2.70;;;6.60;83.30;;;6.56;52.05;95368.69;5070941;28;20498;-60
2024/01/26 02:49:36;;;;;;;5.57;2.17;;;6.60;83.00;;;6.57;52.32;95364.31;5070632;28;20459;-59
2024/01/26 02:52:03;;;;;;;18.60;2.33;;;6.60;83.10;;;6.59;52.57;95365.03;5070311;28;20490;-61
2024/01/26 02:54:30;;;;;;;9.00;2.90;;;6.70;83.20;;;6.58;52.50;95358.13;5070468;28;20507;-59
2024/01/26 02:56:58;;;;;;;10.40;2.43;;;6.70;83.00;;;6.57;52.23;95369.53;5070360;28;20474;-60
2024/01/26 02:59:27;;;;;;;3.80;1.90;;;6.70;82.90;;;6.58;52.38;95364.19;5070235;28;20919;-59
2024/01/26 03:01:55;;;;;;;7.13;2.60;;;6.70;83.10;;;6.60;52.45;95371.91;5070534;28;20483;-59
2024/01/26 03:04:22;;;;;;;5.10;1.70;;;6.70;83.20;;;6.62;52.65;95365.66;5070676;28;20466;-60
2024/01/26 03:06:50;;;;;;;6.27;2.57;;;6.70;82.90;;;6.63;52.49;95369.09;5070458;28;20478;-58
2024/01/26 03:09:18;;;;;;;9.00;2.40;;;6.70;82.90;;;6.63;52.47;95372.56;5070184;28;20458;-60
2024/01/26 03:11:46;;;;;;;8.83;2.80;;;6.70;82.70;;;6.64;51.84;95381.22;5069967;28;21149;-61
2024/01/26 03:14:15;;;;;;;5.93;2.27;;;6.70;82.90;;;6.68;52.58;95374.88;5070356;28;20522;-61
2024/01/26 03:16:44;;;;;;;7.20;2.60;;;6.80;83.00;;;6.71;52.20;95377.28;5070013;28;20540;-58
2024/01/26 03:19:11;;;;;;;5.67;2.13;;;6.80;82.90;;;6.72;52.51;95376.31;5070308;28;20462;-59
2024/01/26 03:21:43;;;;;;;3.57;2.50;;;6.80;82.90;;;6.73;52.50;95388.44;5070454;28;20467;-60
2024/01/26 03:24:10;;;;;;;8.30;2.67;;;6.80;82.90;;;6.75;51.91;95375.28;5070322;28;20486;-60
2024/01/26 03:26:38;;;;;;;11.47;2.80;;;6.80;82.90;;;6.77;52.08;95383.84;5070345;28;21070;-57
2024/01/26 03:29:06;;;;;;;9.10;2.17;;;6.80;82.70;;;6.78;52.48;95375.91;5070165;28;20505;-59
2024/01/26 03:31:33;;;;;;;5.70;1.93;;;6.80;82.80;;;6.80;52.57;95374.03;5070219;28;20507;-59
2024/01/26 03:34:02;;;;;;;8.90;2.50;;;6.80;82.70;;;6.82;52.40;95381.78;5071226;28;20494;-59
2024/01/26 03:36:29;;;;;;;6.40;2.20;;;6.90;82.70;;;6.84;51.46;95373.81;5070508;28;20839;-57
2024/01/26 03:38:56;;;;;;;6.70;2.33;;;6.90;82.70;;;6.84;51.62;95369.44;5070184;28;20450;-57
2024/01/26 03:41:24;;;;;;;5.20;2.03;;;6.90;82.60;;;6.86;52.11;95366.72;5069945;28;20471;-59
2024/01/26 03:43:52;;;;;;;7.90;3.00;;;6.90;82.70;;;6.87;51.94;95371.00;5070477;28;20831;-58
2024/01/26 03:46:20;;;;;;;11.40;3.33;;;6.90;83.00;;;6.87;52.17;95368.38;5069975;28;21006;-59
2024/01/26 03:48:48;;;;;;;5.00;2.10;;;6.90;82.60;;;6.86;51.95;95372.75;5069738;28;20538;-58
2024/01/26 03:51:16;;;;;;;6.60;2.30;;;6.90;82.60;;;6.87;51.75;95373.63;5070077;28;20544;-59
2024/01/26 03:53:44;;;;;;;11.33;2.53;;;6.90;82.60;;;6.86;52.20;95364.91;5069827;28;21045;-60
2024/01/26 03:56:11;;;;;;;7.13;2.37;;;6.90;82.50;;;6.88;51.85;95377.88;5069781;28;20540;-60
2024/01/26 03:58:38;;;;;;;8.00;2.47;;;6.90;82.50;;;6.87;51.93;95364.00;5070095;28;20988;-59
2024/01/26 04:01:06;;;;;;;7.80;2.50;;;6.90;82.50;;;6.88;52.45;95362.19;5069780;28;20471;-59
2024/01/26 04:03:33;;;;;;;4.33;2.30;;;6.90;82.50;;;6.86;52.08;95367.53;5069526;28;20443;-60
2024/01/26 04:06:03;;;;;;;10.43;3.40;;;6.90;82.10;;;6.84;52.20;95373.81;5069717;28;20471;-59
2024/01/26 04:08:32;;;;;;;9.50;3.00;;;6.90;82.10;;;6.81;51.96;95370.47;5069661;28;20492;-58
2024/01/26 04:10:59;;;;;;;7.90;2.77;;;6.90;82.30;;;6.83;51.74;95375.59;5066307;28;20468;-60
2024/01/26 04:13:26;;;;;;;8.17;2.30;;;6.90;82.20;;;6.82;52.20;95379.16;5064174;28;20509;-60
2024/01/26 04:15:54;;;;;;;4.43;1.90;;;6.90;82.00;;;6.82;51.99;95374.75;5066797;28;20466;-60
2024/01/26 04:18:21;;;;;;;11.77;2.63;;;6.90;82.00;;;6.84;51.85;95376.44;5068720;28;20458;-61
2024/01/26 04:20:48;;;;;;;12.20;3.20;;;6.90;82.00;;;6.85;51.25;95386.78;5064157;28;21007;-60
2024/01/26 04:23:16;;;;;;;8.70;3.10;;;6.90;82.00;;;6.88;52.10;95390.97;5064737;28;20517;-58
2024/01/26 04:25:45;;;;;;;12.47;3.17;;;6.90;82.00;;;6.89;52.13;95398.69;5062238;28;20475;-59
2024/01/26 04:28:12;;;;;;;4.50;1.90;;;6.90;82.00;;;6.92;52.05;95405.50;5068636;28;20458;-61
2024/01/26 04:30:42;;;;;;;10.80;2.40;;;7.00;82.10;;;6.94;51.55;95399.25;5062495;28;20467;-59
2024/01/26 04:33:09;;;;;;;5.77;2.07;;;7.00;82.00;;;6.94;51.30;95407.09;5058213;28;20467;-60
2024/01/26 04:35:36;;;;;;;4.47;1.97;;;7.00;81.80;;;6.97;51.57;95406.88;5068167;28;20552;-59
2024/01/26 04:38:05;;;;;;;10.73;2.97;;;7.00;81.70;;;7.00;51.44;95416.28;5069360;28;20454;-62
2024/01/26 04:40:33;;;;;;;6.20;2.60;;;7.10;81.80;;;7.03;51.96;95420.47;5066025;28;20821;-60
2024/01/26 04:43:01;;;;;;;12.10;2.90;;;7.10;81.60;;;7.03;51.58;95417.84;5067084;28;20516;-61
2024/01/26 04:45:29;;;;;;;5.67;2.30;;;7.10;81.40;;;7.04;50.77;95417.75;5065794;28;20896;-61
2024/01/26 04:47:56;;;;;;;19.00;2.60;;;7.10;81.10;;;7.04;50.85;95417.75;5064698;28;20447;-59
2024/01/26 04:50:23;;;;;;;6.60;2.43;;;7.10;80.70;;;7.04;51.04;95412.53;5066941;28;20470;-60
2024/01/26 04:52:52;;;;;;;5.47;2.20;;;7.10;80.70;;;7.03;50.86;95416.06;5067342;28;20852;-60
2024/01/26 04:55:20;;;;;;;6.97;2.60;;;7.10;80.70;;;7.05;51.39;95415.97;5067191;28;20486;-60
2024/01/26 04:57:47;;;;;;;10.30;3.23;;;7.10;80.80;;;7.05;51.26;95423.81;5067559;28;20548;-60
2024/01/26 05:00:18;;;;;;;5.00;2.70;;;7.10;81.40;;;7.07;51.06;95427.19;5069380;28;20443;-60
2024/01/26 05:02:45;;;;;;;11.30;2.50;;;7.10;80.60;;;7.05;50.85;95423.81;5067032;28;20766;-59
2024/01/26 05:05:13;;;;;;;9.00;3.57;;;7.10;80.70;;;7.05;51.02;95419.44;5068665;28;20458;-58
2024/01/26 05:07:40;;;;;;;8.47;2.30;;;7.10;80.60;;;7.03;51.19;95410.84;5073350;28;20504;-61
2024/01/26 05:10:09;;;;;;;8.57;2.60;;;7.10;80.60;;;7.02;50.97;95408.31;5074223;28;20490;-62
2024/01/26 05:12:36;;;;;;;7.07;2.20;;;7.10;80.60;;;6.98;51.85;95408.53;5074446;28;20451;-57
2024/01/26 05:15:04;;;;;;;8.23;2.50;;;7.10;82.50;;;6.98;51.68;95405.09;5065491;28;20545;-61
2024/01/26 05:17:33;;;;;;;9.70;2.40;;;7.10;82.00;;;6.97;51.21;95395.56;5072854;28;20483;-58
2024/01/26 05:20:00;;;;;;;9.07;2.63;;;7.10;81.70;;;6.98;54.07;95402.47;5068265;28;20462;-59
2024/01/26 05:22:27;;;;;;;8.27;2.73;;;7.10;86.30;;;7.01;51.61;95417.97;5072612;28;20554;-59
2024/01/26 05:24:55;;;;;;;9.07;2.93;;;7.10;82.20;;;7.00;51.51;95408.44;5068755;28;20443;-61
2024/01/26 05:27:22;;;;;;;9.20;2.27;;;7.10;81.60;;;6.96;51.31;95420.88;5067977;28;21181;-58
2024/01/26 05:29:50;;;;;;;8.03;3.17;;;7.10;81.10;;;6.93;51.48;95409.81;5064371;28;20454;-61
2024/01/26 05:32:19;;;;;;;10.03;2.40;;;7.00;80.80;;;6.91;51.24;95419.50;5065844;28;20525;-62
2024/01/26 05:34:48;;;;;;;8.07;2.50;;;7.00;80.60;;;6.89;51.56;95418.78;5065746;28;20498;-59
2024/01/26 05:37:15;;;;;;;10.17;2.40;;;7.00;80.90;;;6.88;51.01;95430.19;5070322;28;20834;-59
2024/01/26 05:39:43;;;;;;;6.10;2.80;;;6.90;80.90;;;6.86;51.18;95434.69;5069097;28;20458;-60
2024/01/26 05:42:10;;;;;;;6.70;2.83;;;6.90;80.70;;;6.84;50.96;95433.97;5071228;28;20548;-61
2024/01/26 05:44:37;;;;;;;6.07;2.90;;;6.90;80.50;;;6.81;51.52;95430.59;5066141;28;20545;-60
2024/01/26 05:47:05;;;;;;;5.73;2.20;;;6.90;80.10;;;6.79;51.08;95440.31;5066031;28;20994;-58
2024/01/26 05:49:33;;;;;;;9.17;2.60;;;6.90;80.50;;;6.80;51.19;95441.16;5070887;28;20455;-59
2024/01/26 05:52:02;;;;;;;6.87;2.37;;;6.90;80.70;;;6.80;51.64;95446.38;5071288;28;20474;-59
2024/01/26 05:54:29;;;;;;;8.03;2.20;;;6.90;80.70;;;6.78;51.50;95453.50;5066746;28;20595;-60
2024/01/26 05:56:57;;;;;;;7.03;2.40;;;6.90;80.70;;;6.76;51.50;95456.22;5068407;28;20478;-62
2024/01/26 05:59:24;;;;;;;8.50;2.70;;;6.90;80.60;;;6.77;51.66;95459.66;5069900;28;20870;-59
2024/01/26 06:01:51;;;;;;;7.17;2.50;;;6.80;80.60;;;6.77;50.88;95467.50;5069753;28;20508;-60
2024/01/26 06:04:19;;;;;;;5.20;2.57;;;6.80;80.00;;;6.75;51.11;95467.59;5069685;28;20469;-58
2024/01/26 06:06:46;;;;;;;5.77;2.50;;;6.80;80.00;;;6.75;51.48;95466.78;5070588;28;20540;-60
2024/01/26 06:09:15;;;;;;;10.63;3.07;;;6.80;79.90;;;6.78;50.76;95466.56;5070973;28;20536;-60
2024/01/26 06:11:43;;;;;;;6.47;2.40;;;6.90;80.40;;;6.85;50.75;95470.47;5070109;28;20467;-59
2024/01/26 06:14:11;;;;;;;10.57;2.07;;;6.90;80.30;;;6.94;51.26;95466.38;5070810;28;20528;-60
2024/01/26 06:16:38;;;;;;;13.90;2.97;;;7.00;80.10;;;6.98;50.76;95466.06;5070406;28;20980;-59
2024/01/26 06:19:05;;;;;;;6.90;2.77;;;7.00;80.00;;;7.03;50.96;95467.56;5070744;28;20459;-59
2024/01/26 06:21:32;;;;;;;7.50;2.10;;;7.10;80.00;;;7.06;50.46;95464.72;5070387;28;20494;-60
2024/01/26 06:24:00;;;;;;;6.87;2.13;;;7.10;79.90;;;7.13;50.18;95466.00;5070642;28;20451;-60
2024/01/26 06:26:28;;;;;;;8.97;4.03;;;7.20;79.60;;;7.30;50.85;95470.91;5070606;28;20474;-59
2024/01/26 06:28:56;;;;;;;4.60;1.80;;;7.30;79.70;;;7.59;50.41;95464.59;5070572;28;20455;-59
2024/01/26 06:31:26;;;;;;;7.10;2.33;;;7.50;79.70;;;7.94;49.87;95463.91;5069698;28;20463;-59
2024/01/26 06:33:54;;;;;;;7.20;2.33;;;7.80;79.30;;;8.31;49.62;95463.91;5069973;28;20520;-60
2024/01/26 06:36:21;;;;;;;7.53;1.90;;;8.20;78.90;;;8.71;48.42;95471.50;5070306;28;20467;-59
2024/01/26 06:38:48;;;;;;;6.80;2.47;;;8.60;77.40;;;9.12;48.11;95463.16;5070233;28;20997;-59
2024/01/26 06:41:16;;;;;;;4.60;1.67;;;8.90;77.00;;;9.54;47.59;95474.88;5070193;28;20475;-60
2024/01/26 06:43:50;;;;;;;6.53;2.00;;;9.30;76.00;;;9.95;46.64;95470.84;5069847;28;20456;-59
2024/01/26 06:46:22;;;;;;;4.30;2.33;;;9.70;74.80;;;10.37;45.08;95466.59;5070352;28;21020;-60
2024/01/26 06:48:49;;;;;;;5.37;1.87;;;10.20;70.90;;;10.80;45.23;95482.47;5066764;28;20500;-60
2024/01/26 06:51:17;;;;;;;3.25;2.05;;;10.60;71.00;;;11.21;45.10;95473.75;5023726;28;1205609;-58
2024/01/26 06:53:44;;;;;;;7.93;2.20;;;11.00;71.10;;;11.67;44.17;95476.94;5067153;28;20444;-61
2024/01/26 06:56:11;;;;;;;4.90;2.13;;;11.50;69.60;;;12.16;43.55;95482.41;5057508;28;20500;-61
2024/01/26 06:58:39;;;;;;;6.53;2.27;;;12.00;67.60;;;12.68;42.51;95480.44;5063625;28;20542;-60
2024/01/26 07:01:08;;;;;;;8.73;2.67;;;12.60;65.90;;;13.18;42.97;95484.72;5064990;28;20486;-60
2024/01/26 07:03:35;;;;;;;3.90;2.00;;;13.10;66.00;;;13.61;41.64;95482.63;5066799;28;20467;-61
2024/01/26 07:06:02;;;;;;;8.67;1.83;;;13.60;64.50;;;14.01;40.84;95483.31;5064558;28;20475;-59
2024/01/26 07:08:30;;;;;;;7.93;2.47;;;14.00;62.50;;;14.38;40.64;95485.09;5062737;28;20455;-60
2024/01/26 07:10:57;;;;;;;4.57;2.03;;;14.40;61.90;;;14.79;38.62;95486.38;5066484;28;20475;-60
2024/01/26 07:13:24;;;;;;;4.53;2.40;;;14.90;58.40;;;15.19;39.26;95482.41;5065104;28;20978;-60
2024/01/26 07:15:51;;;;;;;4.67;2.00;;;15.40;59.80;;;15.56;38.91;95480.53;5063012;28;20506;-59
2024/01/26 07:18:20;;;;;;;11.53;2.50;;;15.80;59.20;;;15.92;37.17;95491.06;5065844;28;20459;-60
2024/01/26 07:20:47;;;;;;;7.63;2.67;;;16.20;56.50;;;16.26;37.84;95490.25;5066590;28;20469;-60
2024/01/26 07:23:15;;;;;;;11.17;1.60;;;16.60;57.10;;;16.63;37.05;95487.19;5065422;28;20520;-60
2024/01/26 07:25:42;;;;;;;4.77;1.83;;;17.00;56.20;;;17.02;36.05;95488.47;5065777;28;20482;-60
2024/01/26 07:28:09;;;;;;;7.70;1.77;;;17.40;54.40;;;17.37;34.17;95491.81;5062219;28;20503;-60
2024/01/26 07:30:37;;;;;;;9.10;2.70;;;17.70;52.50;;;17.62;34.70;95486.50;5062424;28;20455;-62
2024/01/26 07:33:06;;;;;;;6.83;2.10;;;18.00;52.50;;;17.85;32.72;95489.28;5063392;28;20494;-61
2024/01/26 07:35:35;;;;;;;2.80;1.60;;;18.10;50.30;;;17.99;32.46;95490.44;5060202;28;20490;-60
2024/01/26 07:38:03;;;;;;;3.30;1.67;;;18.30;48.80;;;17.97;33.68;95495.94;5061554;28;20466;-60
2024/01/26 07:40:30;;;;;;;5.70;1.80;;;18.20;50.20;;;17.97;31.71;95493.28;5063571;28;20509;-58
2024/01/26 07:42:57;;;;;;;10.13;2.13;;;18.10;48.70;;;18.01;32.35;95485.78;5064242;28;20451;-61
2024/01/26 07:45:25;;;;;;;3.47;1.50;;;18.00;48.90;;;18.10;34.03;95498.88;5058420;28;20471;-60
2024/01/26 07:47:52;;;;;;;3.67;1.97;;;18.00;50.60;;;18.19;32.08;95498.88;5061531;28;20447;-60
2024/01/26 07:50:20;;;;;;;7.00;2.20;;;18.00;48.30;;;18.26;33.01;95495.34;5064527;28;20466;-60
2024/01/26 07:52:48;;;;;;;6.03;1.50;;;18.10;49.60;;;18.19;33.63;95501.53;5064533;28;20492;-61
2024/01/26 07:55:17;;;;;;;5.17;1.93;;;18.10;50.10;;;18.09;32.62;95502.56;5060955;28;20482;-61
2024/01/26 07:57:44;;;;;;;6.73;2.43;;;18.00;49.50;;;18.18;31.26;95507.84;5058615;28;20558;-62
2024/01/26 08:00:13;;;;;;;6.47;2.20;;;18.00;47.90;;;18.23;32.30;95503.69;5068293;28;20455;-59
2024/01/26 08:02:41;;;;;;;4.47;2.67;;;18.00;48.80;;;18.23;32.08;95506.34;5062479;28;20974;-60
2024/01/26 08:05:09;;;;;;;5.83;1.93;;;18.00;48.00;;;18.25;31.06;95498.19;5069755;28;20443;-61
2024/01/26 08:07:36;;;;;;;2.80;2.00;;;18.00;46.80;;;18.36;31.92;95494.31;5055204;28;20455;-60
2024/01/26 08:10:07;;;;;;;6.30;2.30;;;18.10;48.40;;;18.46;31.37;95505.56;5048782;28;20899;-61
2024/01/26 08:12:34;;;;;;;15.83;2.90;;;18.20;47.60;;;18.52;30.86;95498.75;5062058;28;20565;-61
2024/01/26 08:15:01;;;;;;;4.70;1.57;;;18.20;46.50;;;18.45;31.28;95506.56;5061519;28;20544;-60
2024/01/26 08:17:28;;;;;;;5.53;1.80;;;18.20;47.60;;;18.29;31.59;95499.47;5050567;28;20481;-62
2024/01/26 08:19:57;;;;;;;8.17;2.57;;;18.10;47.60;;;18.18;31.20;95518.50;5062323;28;20551;-60
2024/01/26 08:22:24;;;;;;;4.33;2.63;;;17.90;46.20;;;18.17;31.35;95522.16;5059670;28;20977;-59
2024/01/26 08:24:51;;;;;;;5.50;2.37;;;17.80;46.40;;;18.25;31.31;95533.63;5061982;28;20528;-60
2024/01/26 08:27:20;;;;;;;2.80;1.70;;;17.90;46.40;;;18.24;29.83;95526.63;5061062;28;20459;-59
2024/01/26 08:29:47;;;;;;;2.47;1.93;;;17.90;45.30;;;18.23;30.94;95527.66;5060863;28;20987;-60
2024/01/26 08:32:15;;;;;;;3.97;2.10;;;17.90;45.90;;;18.26;30.34;95516.66;5058981;28;20471;-60
2024/01/26 08:34:42;;;;;;;3.70;2.17;;;17.90;45.30;;;18.26;30.14;95500.69;5060705;28;20486;-59
2024/01/26 08:37:09;;;;;;;6.20;3.00;;;17.90;45.10;;;18.23;30.37;95514.34;5056992;28;20490;-61
2024/01/26 08:39:37;;;;;;;5.07;2.07;;;17.90;45.80;;;18.20;29.75;95512.00;5061463;28;20447;-60
2024/01/26 08:42:05;;;;;;;6.13;1.87;;;17.90;45.20;;;18.24;30.58;95517.81;5060597;28;21292;-60
2024/01/26 08:44:33;;;;;;;5.60;1.70;;;17.90;45.70;;;18.35;30.46;95519.28;5062940;28;20471;-61
2024/01/26 08:47:01;;;;;;;3.47;1.97;;;18.00;46.10;;;18.49;30.34;95517.72;5063265;28;20470;-61
2024/01/26 08:49:28;;;;;;;5.10;1.93;;;18.00;45.40;;;18.64;30.75;95522.16;5061805;28;20551;-60
2024/01/26 08:51:57;;;;;;;7.37;2.33;;;18.20;46.00;;;18.73;29.45;95511.44;5062360;28;20488;-60
2024/01/26 08:54:25;;;;;;;2.50;1.47;;;18.30;45.00;;;18.73;30.36;95522.94;5063678;28;20481;-61
2024/01/26 08:56:52;;;;;;;9.07;2.07;;;18.30;46.00;;;18.66;29.93;95527.31;5063489;28;20471;-61
2024/01/26 08:59:19;;;;;;;8.13;1.73;;;18.30;44.50;;;18.67;29.86;95528.97;5062925;28;20504;-61
2024/01/26 09:01:48;;;;;;;7.20;2.37;;;18.20;44.40;;;18.74;30.10;95529.09;5058305;28;20580;-61
2024/01/26 09:04:16;;;;;;;4.00;2.10;;;18.30;44.70;;;18.83;30.56;95525.38;5060760;28;20443;-61
2024/01/26 09:06:43;;;;;;;4.93;1.77;;;18.40;45.40;;;19.01;30.56;95524.31;5059917;28;20484;-61
2024/01/26 09:09:12;;;;;;;2.80;1.80;;;18.50;45.70;;;19.02;29.16;95524.13;5061379;28;21015;-60
2024/01/26 09:11:39;;;;;;;7.03;1.97;;;18.60;43.60;;;18.99;29.16;95530.66;5065192;28;20479;-60
2024/01/26 09:14:06;;;;;;;7.53;2.23;;;18.60;43.60;;;18.99;29.19;95522.66;5060992;28;20478;-61
2024/01/26 09:16:34;;;;;;;7.93;1.77;;;18.50;44.20;;;19.11;29.25;95535.59;5062780;28;20494;-60
2024/01/26 09:19:02;;;;;;;5.70;2.23;;;18.60;44.30;;;19.23;29.36;95518.19;5063065;28;20482;-61
2024/01/26 09:21:30;;;;;;;4.47;2.03;;;18.70;43.70;;;19.23;29.11;95523.50;5061763;28;20551;-58
2024/01/26 09:23:57;;;;;;;3.40;1.93;;;18.80;44.60;;;19.19;29.48;95516.84;5063257;28;20525;-59
2024/01/26 09:26:25;;;;;;;4.00;2.00;;;18.70;44.70;;;19.07;29.24;95511.13;5060748;28;20470;-59
2024/01/26 09:28:52;;;;;;;6.30;2.17;;;18.60;43.60;;;18.98;28.97;95509.53;5062478;28;20508;-61
2024/01/26 09:31:19;;;;;;;4.10;2.10;;;18.60;44.50;;;18.95;29.15;95509.88;5059369;28;20467;-60
2024/01/26 09:33:47;;;;;;;2.90;2.17;;;18.50;44.20;;;19.06;29.22;95513.97;5062612;28;20539;-61
2024/01/26 09:36:16;;;;;;;2.83;1.70;;;18.50;44.10;;;19.21;29.13;95514.88;5063209;28;20498;-61
2024/01/26 09:38:45;;;;;;;4.40;2.03;;;18.70;44.10;;;19.38;28.39;95509.38;5062878;28;20483;-61
2024/01/26 09:41:12;;;;;;;3.87;2.43;;;18.80;43.30;;;19.52;28.96;95505.97;5058644;28;20481;-60
2024/01/26 09:43:39;;;;;;;3.50;1.50;;;19.00;44.50;;;19.58;28.78;95491.91;5059748;28;20487;-61
2024/01/26 09:46:07;;;;;;;6.13;1.87;;;19.10;43.00;;;19.53;28.46;95497.78;5062327;28;20478;-60
2024/01/26 09:48:35;;;;;;;4.33;2.53;;;19.10;42.90;;;19.39;27.47;95505.72;5069138;28;20459;-61
2024/01/26 09:51:02;;;;;;;4.30;1.70;;;19.00;41.30;;;19.26;28.35;95501.81;5062182;28;20482;-61
2024/01/26 09:53:31;;;;;;;4.53;1.83;;;18.90;42.70;;;19.28;28.66;95501.63;5065308;28;20446;-62
2024/01/26 09:55:58;;;;;;;4.47;1.80;;;18.90;43.10;;;19.32;28.93;95501.09;5067967;28;20486;-61
2024/01/26 09:58:25;;;;;;;3.77;2.40;;;18.80;42.60;;;19.38;28.09;95493.38;5061660;28;20885;-60
2024/01/26 10:00:54;;;;;;;6.83;2.80;;;18.90;41.90;;;19.47;28.99;95489.66;5061665;28;20501;-60
2024/01/26 10:03:24;;;;;;;5.03;2.17;;;19.00;42.80;;;19.61;28.22;95494.22;5061784;28;21016;-62
2024/01/26 10:05:53;;;;;;;3.20;1.83;;;19.00;42.30;;;19.70;27.98;95482.44;5065497;28;20520;-61
2024/01/26 10:08:20;;;;;;;7.73;2.80;;;19.10;42.10;;;19.85;27.11;95465.66;5066877;28;20474;-59
2024/01/26 10:10:49;;;;;;;4.77;2.10;;;19.30;41.80;;;19.93;28.24;95465.56;5067070;28;20604;-60
2024/01/26 10:13:16;;;;;;;3.40;1.97;;;19.40;43.00;;;19.93;28.05;95462.88;5062957;28;20616;-60
2024/01/26 10:15:44;;;;;;;5.33;2.47;;;19.40;41.90;;;19.92;27.90;95458.53;5065055;28;20491;-61
2024/01/26 10:18:11;;;;;;;11.07;2.40;;;19.50;42.20;;;19.88;27.61;95454.59;5063100;28;20450;-59
2024/01/26 10:20:39;;;;;;;3.13;2.20;;;19.40;41.50;;;19.88;26.34;95455.41;5059131;28;21001;-62
2024/01/26 10:23:06;;;;;;;8.53;2.03;;;19.40;40.80;;;19.85;26.52;95452.28;5062135;28;20967;-61
2024/01/26 10:25:35;;;;;;;11.60;2.20;;;19.40;40.70;;;19.81;26.93;95434.97;5066033;28;20516;-62
2024/01/26 10:28:11;;;;;;;5.63;2.50;;;19.40;40.80;;;19.63;26.20;95438.00;5061873;28;20463;-62
2024/01/26 10:30:44;;;;;;;3.40;2.23;;;19.20;40.10;;;19.38;26.76;95448.03;5061819;28;20501;-61